createdAt,value
2023-05-19T00:00:57.906Z,101684.44
2023-05-19T00:03:27.704Z,101683.19
2023-05-19T00:08:58.406Z,101691.53
2023-05-19T00:11:26.900Z,101677.38
2023-05-19T00:13:55.269Z,101684.69
2023-05-19T00:16:23.683Z,101685.28
2023-05-19T00:18:53.319Z,101685.28
2023-05-19T00:21:21.859Z,101683.66
2023-05-19T00:23:49.586Z,101687.81
2023-05-19T00:26:17.345Z,101692.72
2023-05-19T00:28:44.997Z,101683.19
2023-05-19T00:31:12.629Z,101700.91
2023-05-19T00:33:40.294Z,101681.78
2023-05-19T00:36:09.876Z,101673.72
2023-05-19T00:38:38.430Z,101691.16
2023-05-19T00:41:07.517Z,101677.41
2023-05-19T00:43:35.415Z,101683.69
2023-05-19T00:46:03.432Z,101674.16
2023-05-19T00:48:31.145Z,101688.06
2023-05-19T00:51:04.400Z,101689.91
2023-05-19T00:53:34.852Z,101695.28
2023-05-19T00:56:03.421Z,101697.38
2023-05-19T00:58:32.801Z,101675.09
2023-05-19T01:01:03.669Z,101677.22
2023-05-19T01:03:33.069Z,101691.31
2023-05-19T01:06:04.898Z,101685.34
2023-05-19T01:08:35.661Z,101692.41
2023-05-19T01:11:03.369Z,101674.38
2023-05-19T01:13:31.233Z,101678.09
2023-05-19T01:16:06.763Z,101683.28
2023-05-19T01:18:41.896Z,101667.44
2023-05-19T01:21:36.477Z,101692.59
2023-05-19T01:24:18.323Z,101677.50
2023-05-19T01:27:01.410Z,101683.19
2023-05-19T01:29:43.306Z,101680.56
2023-05-19T01:32:12.957Z,101680.41
2023-05-19T01:34:44.222Z,101686.41
2023-05-19T01:37:13.257Z,101683.59
2023-05-19T01:39:41.628Z,101672.84
2023-05-19T01:42:09.452Z,101673.78
2023-05-19T01:44:37.495Z,101672.91
2023-05-19T01:47:05.595Z,101671.25
2023-05-19T01:49:34.985Z,101685.22
2023-05-19T01:52:02.689Z,101677.88
2023-05-19T01:54:30.440Z,101675.41
2023-05-19T01:57:01.828Z,101682.66
2023-05-19T01:59:42.363Z,101672.53
2023-05-19T02:02:17.497Z,101669.63
2023-05-19T02:04:52.746Z,101667.34
2023-05-19T02:07:27.851Z,101683.28
2023-05-19T02:12:54.189Z,101680.81
2023-05-19T02:15:23.507Z,101692.88
2023-05-19T02:17:52.196Z,101683.59
2023-05-19T02:20:22.951Z,101675.94
2023-05-19T02:22:50.629Z,101679.00
2023-05-19T02:25:18.357Z,101665.47
2023-05-19T02:27:46.477Z,101686.63
2023-05-19T02:30:14.369Z,101677.00
2023-05-19T02:32:42.047Z,101675.91
2023-05-19T02:35:10.493Z,101674.84
2023-05-19T02:37:39.715Z,101669.28
2023-05-19T02:40:08.509Z,101675.94
2023-05-19T02:42:36.166Z,101680.22
2023-05-19T02:45:03.807Z,101683.97
2023-05-19T02:47:31.857Z,101663.25
2023-05-19T02:49:59.580Z,101670.72
2023-05-19T02:52:27.318Z,101652.22
2023-05-19T02:54:56.398Z,101648.50
2023-05-19T02:57:24.400Z,101672.03
2023-05-19T02:59:52.178Z,101679.41
2023-05-19T03:02:19.942Z,101667.13
2023-05-19T03:04:47.838Z,101663.72
2023-05-19T03:07:15.616Z,101667.31
2023-05-19T03:09:43.362Z,101664.28
2023-05-19T03:12:12.685Z,101651.41
2023-05-19T03:14:41.142Z,101642.47
2023-05-19T03:17:10.223Z,101638.53
2023-05-19T03:19:38.054Z,101634.19
2023-05-19T03:22:06.348Z,101647.22
2023-05-19T03:24:34.401Z,101642.63
2023-05-19T03:27:02.487Z,101653.38
2023-05-19T03:29:31.600Z,101655.00
2023-05-19T03:31:59.851Z,101652.50
2023-05-19T03:34:27.620Z,101649.56
2023-05-19T03:36:55.397Z,101663.66
2023-05-19T03:39:23.057Z,101654.22
2023-05-19T03:41:51.357Z,101668.63
2023-05-19T03:44:19.172Z,101652.84
2023-05-19T03:46:48.687Z,101664.56
2023-05-19T03:49:16.358Z,101655.19
2023-05-19T03:51:44.314Z,101657.19
2023-05-19T03:54:11.965Z,101653.66
2023-05-19T03:56:41.038Z,101653.88
2023-05-19T03:59:10.840Z,101650.56
2023-05-19T04:01:38.513Z,101658.84
2023-05-19T04:04:07.662Z,101659.25
2023-05-19T04:06:36.363Z,101674.50
2023-05-19T04:09:05.966Z,101651.56
2023-05-19T04:11:33.650Z,101656.66
2023-05-19T04:14:01.278Z,101653.38
2023-05-19T04:16:29.112Z,101667.53
2023-05-19T04:18:56.863Z,101676.88
2023-05-19T04:21:26.181Z,101663.16
2023-05-19T04:23:54.093Z,101683.28
2023-05-19T04:26:22.627Z,101673.22
2023-05-19T04:28:50.297Z,101681.59
2023-05-19T04:31:18.305Z,101692.00
2023-05-19T04:33:46.081Z,101680.28
2023-05-19T04:36:13.825Z,101692.41
2023-05-19T04:38:42.898Z,101682.84
2023-05-19T04:41:12.160Z,101699.88
2023-05-19T04:43:42.011Z,101678.22
2023-05-19T04:46:13.268Z,101680.72
2023-05-19T04:48:41.623Z,101671.94
2023-05-19T04:51:09.399Z,101678.13
2023-05-19T04:53:37.086Z,101685.97
2023-05-19T04:56:07.155Z,101684.41
2023-05-19T04:58:35.057Z,101675.50
2023-05-19T05:01:03.796Z,101681.88
2023-05-19T05:03:33.252Z,101676.84
2023-05-19T05:06:01.075Z,101680.94
2023-05-19T05:08:30.206Z,101683.84
2023-05-19T05:10:58.404Z,101671.81
2023-05-19T05:13:28.136Z,101669.56
2023-05-19T05:15:56.438Z,101674.75
2023-05-19T05:18:24.581Z,101665.31
2023-05-19T05:20:53.935Z,101685.38
2023-05-19T05:23:22.118Z,101670.59
2023-05-19T05:25:50.286Z,101676.69
2023-05-19T05:28:18.093Z,101681.25
2023-05-19T05:31:08.622Z,101675.25
2023-05-19T05:33:36.378Z,101673.03
2023-05-19T05:36:04.675Z,101668.22
2023-05-19T05:38:32.571Z,101661.28
2023-05-19T05:41:01.128Z,101671.44
2023-05-19T05:43:28.789Z,101670.28
2023-05-19T05:45:58.114Z,101660.50
2023-05-19T05:48:26.416Z,101659.34
2023-05-19T05:50:55.614Z,101654.59
2023-05-19T05:53:26.263Z,101669.94
2023-05-19T05:55:54.609Z,101667.63
2023-05-19T05:58:37.327Z,101668.13
2023-05-19T06:01:10.575Z,101680.25
2023-05-19T06:03:39.740Z,101661.63
2023-05-19T06:06:07.664Z,101664.13
2023-05-19T06:08:35.394Z,101664.72
2023-05-19T06:11:08.160Z,101672.22
2023-05-19T06:13:36.161Z,101680.00
2023-05-19T06:16:03.868Z,101677.53
2023-05-19T06:18:33.340Z,101658.09
2023-05-19T06:21:01.645Z,101675.28
2023-05-19T06:23:29.322Z,101687.38
2023-05-19T06:25:57.750Z,101663.16
2023-05-19T06:28:25.621Z,101656.44
2023-05-19T06:30:53.374Z,101661.31
2023-05-19T06:33:21.030Z,101675.59
2023-05-19T06:35:50.056Z,101678.81
2023-05-19T06:38:17.774Z,101670.69
2023-05-19T06:40:45.732Z,101672.81
2023-05-19T06:43:13.403Z,101657.41
2023-05-19T06:45:41.336Z,101667.66
2023-05-19T06:48:09.066Z,101680.50
2023-05-19T06:50:36.831Z,101679.09
2023-05-19T06:53:06.126Z,101664.34
2023-05-19T06:55:41.410Z,101655.78
2023-05-19T06:58:18.525Z,101679.63
2023-05-19T07:00:46.704Z,101674.88
2023-05-19T07:03:14.376Z,101674.53
2023-05-19T07:05:42.003Z,101662.41
2023-05-19T07:08:11.047Z,101665.69
2023-05-19T07:10:38.884Z,101659.28
2023-05-19T07:13:06.508Z,101677.75
2023-05-19T07:15:34.208Z,101669.72
2023-05-19T07:18:02.000Z,101676.13
2023-05-19T07:20:30.047Z,101660.44
2023-05-19T07:26:30.090Z,101666.94
2023-05-19T07:28:57.890Z,101652.69
2023-05-19T07:31:25.940Z,101659.25
2023-05-19T07:33:54.848Z,101658.78
2023-05-19T07:36:22.601Z,101659.63
2023-05-19T07:38:50.193Z,101655.94
2023-05-19T07:41:18.090Z,101664.81
2023-05-19T07:43:47.070Z,101676.81
2023-05-19T07:46:14.743Z,101649.03
2023-05-19T07:51:10.668Z,101659.03
2023-05-19T07:53:38.275Z,101660.03
2023-05-19T07:56:06.560Z,101660.56
2023-05-19T07:58:34.174Z,101640.34
2023-05-19T08:01:03.653Z,101647.75
2023-05-19T08:03:32.048Z,101649.63
2023-05-19T08:06:00.104Z,101650.31
2023-05-19T08:08:27.970Z,101638.84
2023-05-19T08:10:55.592Z,101650.34
2023-05-19T08:13:23.150Z,101639.00
2023-05-19T08:15:50.904Z,101641.91
2023-05-19T08:18:20.169Z,101652.66
2023-05-19T08:20:59.900Z,101637.31
2023-05-19T08:23:27.816Z,101627.47
2023-05-19T08:25:55.918Z,101627.47
2023-05-19T08:28:25.246Z,101609.38
2023-05-19T08:30:53.664Z,101613.78
2023-05-19T08:33:22.950Z,101621.50
2023-05-19T08:35:50.612Z,101620.13
2023-05-19T08:38:18.577Z,101606.72
2023-05-19T08:40:47.843Z,101624.50
2023-05-19T08:43:15.488Z,101604.84
2023-05-19T08:45:44.605Z,101610.06
2023-05-19T08:48:14.009Z,101613.84
2023-05-19T08:50:45.582Z,101611.69
2023-05-19T08:53:28.975Z,101599.59
2023-05-19T08:56:03.065Z,101582.94
2023-05-19T08:58:31.878Z,101590.88
2023-05-19T09:01:00.948Z,101603.22
2023-05-19T09:03:28.990Z,101602.44
2023-05-19T09:05:58.615Z,101591.72
2023-05-19T09:08:26.541Z,101613.47
2023-05-19T09:10:54.418Z,101587.22
2023-05-19T09:13:22.141Z,101594.91
2023-05-19T09:15:50.939Z,101578.88
2023-05-19T09:18:18.950Z,101603.88
2023-05-19T09:20:47.377Z,101580.97
2023-05-19T09:23:17.020Z,101581.72
2023-05-19T09:25:49.047Z,101599.44
2023-05-19T09:28:24.437Z,101575.38
2023-05-19T09:31:00.198Z,101585.53
2023-05-19T09:33:28.206Z,101586.41
2023-05-19T09:35:56.310Z,101568.09
2023-05-19T09:38:26.938Z,101575.34
2023-05-19T09:40:54.896Z,101571.97
2023-05-19T09:43:22.736Z,101581.63
2023-05-19T09:45:50.584Z,101575.25
2023-05-19T09:48:18.354Z,101555.72
2023-05-19T09:50:46.770Z,101551.47
2023-05-19T09:53:15.574Z,101575.06
2023-05-19T09:55:44.855Z,101562.91
2023-05-19T09:58:17.427Z,101552.81
2023-05-19T10:03:27.457Z,101549.75
2023-05-19T10:05:55.433Z,101563.16
2023-05-19T10:08:24.440Z,101547.84
2023-05-19T10:10:53.498Z,101544.66
2023-05-19T10:13:22.651Z,101544.63
2023-05-19T10:18:24.179Z,101538.38
2023-05-19T10:20:52.651Z,101565.72
2023-05-19T10:23:20.786Z,101546.66
2023-05-19T10:25:49.207Z,101547.13
2023-05-19T10:28:20.477Z,101553.31
2023-05-19T10:30:50.890Z,101534.41
2023-05-19T10:33:20.177Z,101526.91
2023-05-19T10:36:09.242Z,101550.69
2023-05-19T10:38:43.836Z,101539.44
2023-05-19T10:41:15.382Z,101527.91
2023-05-19T10:43:52.409Z,101517.66
2023-05-19T10:46:24.907Z,101538.72
2023-05-19T10:48:52.673Z,101518.63
2023-05-19T10:51:20.431Z,101530.56
2023-05-19T10:53:50.097Z,101530.25
2023-05-19T10:56:31.039Z,101507.78
2023-05-19T10:59:00.359Z,101514.34
2023-05-19T11:01:32.312Z,101508.22
2023-05-19T11:04:06.315Z,101516.28
2023-05-19T11:06:35.693Z,101505.22
2023-05-19T11:09:12.480Z,101524.63
2023-05-19T11:11:48.266Z,101507.69
2023-05-19T11:14:19.692Z,101506.47
2023-05-19T11:16:48.554Z,101511.25
2023-05-19T11:19:21.297Z,101508.78
2023-05-19T11:21:50.548Z,101505.34
2023-05-19T11:24:34.468Z,101497.94
2023-05-19T11:27:19.147Z,101526.69
2023-05-19T11:29:49.358Z,101517.53
2023-05-19T11:32:17.357Z,101520.63
2023-05-19T11:34:45.408Z,101504.22
2023-05-19T11:37:13.419Z,101504.53
2023-05-19T11:39:41.347Z,101524.28
2023-05-19T11:42:10.511Z,101513.34
2023-05-19T11:44:39.065Z,101505.78
2023-05-19T11:47:08.480Z,101507.38
2023-05-19T11:49:36.330Z,101516.00
2023-05-19T11:52:04.912Z,101495.38
2023-05-19T11:54:33.885Z,101516.44
2023-05-19T11:57:03.457Z,101495.59
2023-05-19T11:59:33.504Z,101510.00
2023-05-19T12:02:06.985Z,101491.75
2023-05-19T12:04:36.926Z,101501.78
2023-05-19T12:07:05.391Z,101494.81
2023-05-19T12:09:33.554Z,101467.31
2023-05-19T12:12:01.916Z,101488.88
2023-05-19T12:14:31.274Z,101486.97
2023-05-19T12:16:59.430Z,101506.78
2023-05-19T12:19:27.766Z,101502.16
2023-05-19T12:21:56.915Z,101496.00
2023-05-19T12:24:24.532Z,101504.28
2023-05-19T12:27:24.457Z,101484.69
2023-05-19T12:29:53.044Z,101460.66
2023-05-19T12:32:51.946Z,101499.50
2023-05-19T12:35:20.399Z,101465.97
2023-05-19T12:37:50.554Z,101470.19
2023-05-19T12:40:18.484Z,101488.38
2023-05-19T12:42:46.480Z,101473.53
2023-05-19T12:45:14.077Z,101458.97
2023-05-19T12:47:41.887Z,101466.34
2023-05-19T12:50:11.003Z,101476.25
2023-05-19T12:52:43.496Z,101464.13
2023-05-19T12:55:13.982Z,101473.97
2023-05-19T12:57:43.247Z,101466.44
2023-05-19T13:00:17.694Z,101459.28
2023-05-19T13:03:00.264Z,101464.22
2023-05-19T13:05:28.990Z,101462.91
2023-05-19T13:07:57.974Z,101458.03
2023-05-19T13:10:28.138Z,101464.84
2023-05-19T13:12:56.296Z,101444.13
2023-05-19T13:15:26.101Z,101439.81
2023-05-19T13:17:54.981Z,101440.03
2023-05-19T13:20:23.044Z,101433.13
2023-05-19T13:22:51.043Z,101454.06
2023-05-19T13:25:18.798Z,101464.94
2023-05-19T13:27:49.137Z,101444.59
2023-05-19T13:30:17.415Z,101449.47
2023-05-19T13:32:45.425Z,101446.81
2023-05-19T13:35:14.336Z,101439.34
2023-05-19T13:37:42.717Z,101437.31
2023-05-19T13:40:11.391Z,101465.25
2023-05-19T13:42:39.196Z,101463.81
2023-05-19T13:45:09.695Z,101465.34
2023-05-19T13:47:37.355Z,101444.44
2023-05-19T13:50:08.523Z,101447.06
2023-05-19T13:52:36.257Z,101427.28
2023-05-19T13:55:04.068Z,101434.06
2023-05-19T13:57:38.251Z,101435.47
2023-05-19T14:00:08.605Z,101441.44
2023-05-19T14:02:36.364Z,101454.00
2023-05-19T14:05:04.592Z,101435.06
2023-05-19T14:07:34.721Z,101438.41
2023-05-19T14:10:02.560Z,101439.75
2023-05-19T14:12:41.338Z,101427.78
2023-05-19T14:15:13.137Z,101431.03
2023-05-19T14:17:40.872Z,101431.03
2023-05-19T14:20:09.722Z,101420.44
2023-05-19T14:22:37.418Z,101445.81
2023-05-19T14:25:05.536Z,101434.41
2023-05-19T14:27:33.236Z,101441.50
2023-05-19T14:30:01.113Z,101418.63
2023-05-19T14:32:30.631Z,101412.13
2023-05-19T14:34:58.424Z,101426.81
2023-05-19T14:37:28.912Z,101440.69
2023-05-19T14:39:58.077Z,101448.94
2023-05-19T14:42:26.032Z,101435.00
2023-05-19T14:44:56.091Z,101447.41
2023-05-19T14:47:24.727Z,101436.06
2023-05-19T14:49:55.339Z,101418.25
2023-05-19T14:52:23.058Z,101418.81
2023-05-19T14:54:50.714Z,101419.03
2023-05-19T14:57:18.312Z,101410.56
2023-05-19T14:59:45.927Z,101409.56
2023-05-19T15:02:13.598Z,101423.09
2023-05-19T15:04:41.459Z,101414.75
2023-05-19T15:07:11.133Z,101418.25
2023-05-19T15:09:38.992Z,101420.31
2023-05-19T15:12:07.022Z,101425.63
2023-05-19T15:14:34.667Z,101402.53
2023-05-19T15:17:02.349Z,101425.91
2023-05-19T15:19:30.163Z,101399.28
2023-05-19T15:21:57.958Z,101412.38
2023-05-19T15:24:27.435Z,101405.66
2023-05-19T15:26:55.444Z,101417.41
2023-05-19T15:29:23.061Z,101388.59
2023-05-19T15:31:51.596Z,101416.97
2023-05-19T15:34:19.417Z,101411.31
2023-05-19T15:36:47.361Z,101408.28
2023-05-19T15:39:14.997Z,101425.13
2023-05-19T15:41:44.025Z,101393.22
2023-05-19T15:44:11.791Z,101391.06
2023-05-19T15:46:39.557Z,101380.50
2023-05-19T15:49:07.221Z,101409.63
2023-05-19T15:51:35.592Z,101392.44
2023-05-19T15:54:03.247Z,101387.41
2023-05-19T15:56:30.906Z,101395.25
2023-05-19T15:58:59.929Z,101401.03
2023-05-19T16:01:27.669Z,101408.34
2023-05-19T16:03:55.779Z,101392.50
2023-05-19T16:06:24.671Z,101393.03
2023-05-19T16:08:52.335Z,101380.88
2023-05-19T16:11:20.681Z,101379.81
2023-05-19T16:13:48.374Z,101383.63
2023-05-19T16:16:17.613Z,101374.63
2023-05-19T16:18:45.505Z,101375.38
2023-05-19T16:21:13.156Z,101370.00
2023-05-19T16:23:40.854Z,101367.50
2023-05-19T16:26:08.511Z,101362.38
2023-05-19T16:28:36.131Z,101359.72
2023-05-19T16:31:03.756Z,101362.97
2023-05-19T16:33:32.833Z,101368.94
2023-05-19T16:36:01.161Z,101360.75
2023-05-19T16:38:28.829Z,101367.69
2023-05-19T16:40:56.539Z,101366.94
2023-05-19T16:43:24.241Z,101378.22
2023-05-19T16:45:51.899Z,101362.59
2023-05-19T16:48:19.664Z,101345.63
2023-05-19T16:50:50.164Z,101351.09
2023-05-19T16:53:17.907Z,101358.97
2023-05-19T16:55:45.542Z,101364.38
2023-05-19T16:58:13.201Z,101344.81
2023-05-19T17:00:40.995Z,101353.19
2023-05-19T17:03:11.678Z,101351.38
2023-05-19T17:05:41.970Z,101357.97
2023-05-19T17:08:12.515Z,101376.53
2023-05-19T17:10:40.469Z,101367.81
2023-05-19T17:13:08.145Z,101374.34
2023-05-19T17:15:35.752Z,101369.44
2023-05-19T17:18:03.485Z,101371.47
2023-05-19T17:20:31.239Z,101354.44
2023-05-19T17:22:58.905Z,101361.50
2023-05-19T17:25:28.080Z,101366.72
2023-05-19T17:27:56.333Z,101357.53
2023-05-19T17:30:23.948Z,101374.91
2023-05-19T17:32:51.641Z,101368.31
2023-05-19T17:35:19.471Z,101363.34
2023-05-19T17:37:47.076Z,101368.19
2023-05-19T17:40:15.078Z,101363.72
2023-05-19T17:42:44.132Z,101365.22
2023-05-19T17:45:12.559Z,101381.41
2023-05-19T17:47:40.244Z,101375.94
2023-05-19T17:50:08.741Z,101372.97
2023-05-19T17:52:36.880Z,101375.75
2023-05-19T17:55:05.418Z,101374.28
2023-05-19T17:57:34.534Z,101363.38
2023-05-19T18:00:04.572Z,101376.28
2023-05-19T18:02:32.843Z,101361.44
2023-05-19T18:05:01.747Z,101349.19
2023-05-19T18:07:30.226Z,101377.53
2023-05-19T18:09:58.084Z,101374.91
2023-05-19T18:12:26.220Z,101374.50
2023-05-19T18:14:53.861Z,101364.53
2023-05-19T18:17:22.943Z,101350.28
2023-05-19T18:19:50.708Z,101380.72
2023-05-19T18:22:24.394Z,101353.06
2023-05-19T18:24:52.065Z,101374.28
2023-05-19T18:27:19.786Z,101371.81
2023-05-19T18:29:47.638Z,101369.94
2023-05-19T18:32:17.600Z,101384.47
2023-05-19T18:34:47.183Z,101378.06
2023-05-19T18:37:14.948Z,101387.31
2023-05-19T18:39:42.695Z,101386.38
2023-05-19T18:42:10.576Z,101373.97
2023-05-19T18:44:38.282Z,101384.75
2023-05-19T18:47:06.357Z,101386.91
2023-05-19T18:49:33.974Z,101377.00
2023-05-19T18:52:03.242Z,101392.25
2023-05-19T18:54:32.427Z,101382.81
2023-05-19T18:57:00.210Z,101388.56
2023-05-19T18:59:27.874Z,101387.97
2023-05-19T19:01:56.079Z,101406.63
2023-05-19T19:04:23.746Z,101403.31
2023-05-19T19:07:14.199Z,101385.63
2023-05-19T19:09:43.689Z,101407.16
2023-05-19T19:12:11.525Z,101410.56
2023-05-19T19:14:39.238Z,101395.22
2023-05-19T19:17:07.115Z,101393.41
2023-05-19T19:19:34.890Z,101410.16
2023-05-19T19:22:02.697Z,101401.44
2023-05-19T19:24:32.168Z,101405.72
2023-05-19T19:26:59.752Z,101414.66
2023-05-19T19:29:27.379Z,101413.56
2023-05-19T19:31:55.041Z,101418.72
2023-05-19T19:34:22.757Z,101413.44
2023-05-19T19:36:50.662Z,101414.41
2023-05-19T19:39:18.310Z,101422.81
2023-05-19T19:41:47.345Z,101436.22
2023-05-19T19:44:14.994Z,101441.25
2023-05-19T19:46:42.657Z,101413.16
2023-05-19T19:49:10.425Z,101430.56
2023-05-19T19:51:38.148Z,101445.28
2023-05-19T19:54:05.907Z,101433.06
2023-05-19T19:56:33.528Z,101442.72
2023-05-19T19:59:02.519Z,101446.63
2023-05-19T20:01:30.179Z,101439.50
2023-05-19T20:03:58.361Z,101439.03
2023-05-19T20:09:58.284Z,101430.59
2023-05-19T20:12:25.955Z,101445.38
2023-05-19T20:14:55.671Z,101445.72
2023-05-19T20:17:23.314Z,101445.81
2023-05-19T20:19:50.911Z,101455.34
2023-05-19T20:22:18.521Z,101440.97
2023-05-19T20:24:46.208Z,101455.84
2023-05-19T20:27:13.976Z,101446.59
2023-05-19T20:29:42.483Z,101436.50
2023-05-19T20:32:11.774Z,101440.97
2023-05-19T20:34:39.467Z,101435.84
2023-05-19T20:37:07.174Z,101445.38
2023-05-19T20:39:34.907Z,101437.84
2023-05-19T20:42:02.577Z,101452.84
2023-05-19T20:44:30.311Z,101444.44
2023-05-19T20:46:57.928Z,101442.31
2023-05-19T20:49:26.986Z,101444.38
2023-05-19T20:51:54.598Z,101430.16
2023-05-19T20:54:22.219Z,101442.72
2023-05-19T20:56:49.944Z,101456.88
2023-05-19T20:59:17.566Z,101448.53
2023-05-19T21:01:46.097Z,101444.69
2023-05-19T21:04:30.467Z,101448.59
2023-05-19T21:06:58.117Z,101449.72
2023-05-19T21:09:25.970Z,101446.72
2023-05-19T21:11:54.160Z,101446.31
2023-05-19T21:14:21.959Z,101433.44
2023-05-19T21:16:49.646Z,101449.22
2023-05-19T21:19:17.437Z,101428.81
2023-05-19T21:21:47.347Z,101442.03
2023-05-19T21:24:15.149Z,101444.00
2023-05-19T21:26:44.907Z,101455.63
2023-05-19T21:29:12.552Z,101428.38
2023-05-19T21:31:40.184Z,101426.03
2023-05-19T21:34:08.240Z,101444.16
2023-05-19T21:36:36.260Z,101434.69
2023-05-19T21:39:05.498Z,101453.84
2023-05-19T21:41:33.239Z,101434.56
2023-05-19T21:44:00.957Z,101435.13
2023-05-19T21:46:29.487Z,101424.59
2023-05-19T21:48:57.148Z,101434.09
2023-05-19T21:51:25.043Z,101435.97
2023-05-19T21:53:52.675Z,101437.03
2023-05-19T21:56:22.638Z,101447.59
2023-05-19T21:58:50.361Z,101450.81
2023-05-19T22:01:17.992Z,101453.56
2023-05-19T22:03:45.830Z,101453.03
2023-05-19T22:06:13.515Z,101459.34
2023-05-19T22:08:41.374Z,101444.84
2023-05-19T22:11:09.146Z,101439.19
2023-05-19T22:13:41.142Z,101447.59
2023-05-19T22:16:09.362Z,101445.97
2023-05-19T22:18:37.336Z,101436.34
2023-05-19T22:21:05.174Z,101434.75
2023-05-19T22:23:32.894Z,101443.25
2023-05-19T22:26:00.914Z,101444.53
2023-05-19T22:28:28.539Z,101450.63
2023-05-19T22:31:09.453Z,101438.72
2023-05-19T22:33:37.054Z,101433.75
2023-05-19T22:36:05.025Z,101450.09
2023-05-19T22:38:32.871Z,101439.63
2023-05-19T22:41:00.465Z,101439.53
2023-05-19T22:43:28.133Z,101451.19
2023-05-19T22:45:55.740Z,101438.13
2023-05-19T22:48:24.799Z,101436.22
2023-05-19T22:50:52.403Z,101447.53
2023-05-19T22:53:20.067Z,101431.41
2023-05-19T22:55:47.795Z,101453.34
2023-05-19T22:58:15.381Z,101450.53
2023-05-19T23:00:43.043Z,101452.59
2023-05-19T23:03:11.325Z,101450.44
2023-05-19T23:05:40.950Z,101464.34
2023-05-19T23:08:08.606Z,101446.09
2023-05-19T23:10:36.193Z,101456.06
2023-05-19T23:13:03.835Z,101448.59
2023-05-19T23:15:31.665Z,101460.56
2023-05-19T23:18:01.447Z,101454.03
2023-05-19T23:20:29.199Z,101461.31
2023-05-19T23:22:58.198Z,101460.38
2023-05-19T23:25:25.898Z,101454.22
2023-05-19T23:27:53.581Z,101441.97
2023-05-19T23:30:21.253Z,101460.25
2023-05-19T23:35:30.639Z,101452.81
2023-05-19T23:37:59.678Z,101450.38
2023-05-19T23:40:27.450Z,101447.38
2023-05-19T23:42:55.082Z,101443.03
2023-05-19T23:45:22.809Z,101447.84
2023-05-19T23:47:50.536Z,101433.72
2023-05-19T23:50:18.168Z,101436.41
2023-05-19T23:52:46.020Z,101435.13
2023-05-19T23:55:15.263Z,101452.13
2023-05-19T23:57:43.180Z,101441.97
